Time;durP1;ratioP1;P1;durP2;ratioP2;P2;SDS_P1;SDS_P2;PMS_P1;PMS_P2;Temp;Humidity;BMP_temperature;BMP_pressure;BME280_temperature;BME280_humidity;BME280_pressure;Samples;Min_cycle;Max_cycle;Signal;HPM_P1;HPM_P2
2022/01/05 00:00:16;;;;;;;;;;;;;;;-144.99;100.00;52755.88;5071578;28;20103;-75
2022/01/05 00:02:44;;;;;;;;;;;;;;;-144.99;100.00;52747.72;5071403;28;19944;-76
2022/01/05 00:05:10;;;;;;;;;;;;;;;-144.99;100.00;52782.38;5069846;28;19925;-75
2022/01/05 00:07:37;;;;;;;;;;;;;;;-144.99;100.00;52778.31;5070922;28;20409;-74
2022/01/05 00:10:04;;;;;;;;;;;;;;;-144.99;100.00;52757.94;5069091;28;19925;-77
2022/01/05 00:12:30;;;;;;;;;;;;;;;-144.99;100.00;52753.84;5065889;28;20023;-76
2022/01/05 00:14:56;;;;;;;;;;;;;;;-144.99;100.00;52721.22;5070764;28;20414;-76
2022/01/05 00:17:23;;;;;;;;;;;;;;;-144.99;100.00;52743.66;5071099;28;19925;-75
2022/01/05 00:19:50;;;;;;;;;;;;;;;-144.99;100.00;52725.31;5071136;28;19936;-76
2022/01/05 00:22:17;;;;;;;;;;;;;;;-144.99;100.00;52772.19;5073586;28;19928;-76
2022/01/05 00:24:43;;;;;;;;;;;;;;;-144.99;100.00;52786.47;5074289;28;19939;-77
2022/01/05 00:27:10;;;;;;;;;;;;;;;-144.99;100.00;52762.00;5082320;28;19930;-76
2022/01/05 00:29:36;;;;;;;;;;;;;;;-144.99;100.00;52790.53;5072317;28;19935;-75
2022/01/05 00:32:02;;;;;;;;;;;;;;;-144.99;100.00;52788.50;5072199;28;20429;-78
2022/01/05 00:34:29;;;;;;;;;;;;;;;-144.99;100.00;52770.16;5070343;28;19928;-77
2022/01/05 00:36:57;;;;;;;;;;;;;;;-144.99;100.00;52794.63;5072570;28;19924;-78
2022/01/05 00:39:23;;;;;;;;;;;;;;;-144.99;100.00;52725.31;5069391;28;20303;-77
2022/01/05 00:41:49;;;;;;;;;;;;;;;-144.99;100.00;52776.28;5074583;28;19924;-78
2022/01/05 00:44:16;;;;;;;;;;;;;;;-144.99;100.00;52749.78;5073007;28;19959;-78
2022/01/05 00:46:42;;;;;;;;;;;;;;;-144.99;100.00;52762.00;5073645;28;20402;-73
2022/01/05 00:49:08;;;;;;;;;;;;;;;-144.99;100.00;52782.38;5069784;28;19928;-76
2022/01/05 00:51:35;;;;;;;;;;;;;;;-144.99;100.00;52762.00;5070169;28;19928;-78
2022/01/05 00:54:02;;;;;;;;;;;;;;;-144.99;100.00;52741.63;5066597;28;19928;-76
2022/01/05 00:56:29;;;;;;;;;;;;;;;-144.99;100.00;52774.22;5067209;28;19939;-75
2022/01/05 00:58:55;;;;;;;;;;;;;;;-144.99;100.00;52782.38;5070063;28;19925;-76
2022/01/05 01:01:21;;;;;;;;;;;;;;;-144.99;100.00;52741.63;5069723;28;19925;-75
2022/01/05 01:03:48;;;;;;;;;;;;;;;-144.99;100.00;52753.84;5068270;28;19931;-74
2022/01/05 01:06:14;;;;;;;;;;;;;;;-144.99;100.00;52757.94;5069588;28;19934;-75
2022/01/05 01:08:40;;;;;;;;;;;;;;;-144.99;100.00;52755.88;5067584;28;19933;-73
2022/01/05 01:11:08;;;;;;;;;;;;;;;-144.99;100.00;52741.63;5068863;28;19925;-75
2022/01/05 01:13:35;;;;;;;;;;;;;;;-144.99;100.00;52764.03;5068950;28;19924;-74
2022/01/05 01:16:01;;;;;;;;;;;;;;;-144.99;100.00;52751.81;5069531;28;20394;-73
2022/01/05 01:18:27;;;;;;;;;;;;;;;-144.99;100.00;52815.00;5069522;28;19939;-73
2022/01/05 01:20:54;;;;;;;;;;;;;;;-144.99;100.00;52778.31;5069115;28;19931;-74
2022/01/05 01:23:22;;;;;;;;;;;;;;;-144.99;100.00;52757.94;5065049;28;20411;-75
2022/01/05 01:25:48;;;;;;;;;;;;;;;-144.99;100.00;52731.44;5062640;28;19932;-73
2022/01/05 01:28:16;;;;;;;;;;;;;;;-144.99;100.00;52762.00;5070031;28;20116;-76
2022/01/05 01:30:42;;;;;;;;;;;;;;;-144.99;100.00;52743.66;5077900;28;19932;-73
2022/01/05 01:33:09;;;;;;;;;;;;;;;-144.99;100.00;52772.19;5078487;28;19955;-76
2022/01/05 01:35:35;;;;;;;;;;;;;;;-144.99;100.00;52751.81;5072876;28;20377;-75
2022/01/05 01:38:01;;;;;;;;;;;;;;;-144.99;100.00;52749.78;5073210;28;19924;-75
2022/01/05 01:40:28;;;;;;;;;;;;;;;-144.99;100.00;52766.09;5078485;28;19925;-74
2022/01/05 01:42:55;;;;;;;;;;;;;;;-144.99;100.00;52782.38;5088275;28;19929;-74
2022/01/05 01:45:22;;;;;;;;;;;;;;;-144.99;100.00;52737.53;5087527;28;19934;-75
2022/01/05 01:47:48;;;;;;;;;;;;;;;-144.99;100.00;52713.09;5083824;28;20323;-74
2022/01/05 01:50:15;;;;;;;;;;;;;;;-144.99;100.00;52745.69;5083383;28;19928;-74
2022/01/05 01:52:41;;;;;;;;;;;;;;;-144.99;100.00;52762.00;5078200;28;19932;-74
2022/01/05 01:55:08;;;;;;;;;;;;;;;-144.99;100.00;52749.78;5072121;28;19931;-75
2022/01/05 01:57:36;;;;;;;;;;;;;;;-144.99;100.00;52786.47;5077703;28;19924;-76
2022/01/05 02:00:03;;;;;;;;;;;;;;;-144.99;100.00;52768.13;5076126;28;20020;-76
2022/01/05 02:02:31;;;;;;;;;;;;;;;-144.99;100.00;52749.78;5073409;28;19936;-74
2022/01/05 02:04:57;;;;;;;;;;;;;;;-144.99;100.00;52762.00;5069115;28;20065;-75
2022/01/05 02:07:24;;;;;;;;;;;;;;;-144.99;100.00;52770.16;5072368;28;20337;-75
2022/01/05 02:09:50;;;;;;;;;;;;;;;-144.99;100.00;52743.66;5071231;28;19928;-75
2022/01/05 02:12:16;;;;;;;;;;;;;;;-144.99;100.00;52737.53;5067324;28;19936;-76
2022/01/05 02:14:43;;;;;;;;;;;;;;;-144.99;100.00;52766.09;5070373;28;19935;-76
2022/01/05 02:17:17;;;;;;;;;;;;;;;-144.99;100.00;52753.84;5074503;28;20393;-74
2022/01/05 02:22:19;;;;;;;;;;;;;;;-144.99;100.00;52782.38;5089088;28;19963;-73
2022/01/05 02:24:47;;;;;;;;;;;;;;;-144.99;100.00;52815.00;5081982;28;20351;-76
2022/01/05 02:27:13;;;;;;;;;;;;;;;-144.99;100.00;52766.09;5085684;28;19931;-74
2022/01/05 02:29:40;;;;;;;;;;;;;;;-144.99;100.00;52745.69;5089548;28;20301;-73
2022/01/05 02:32:07;;;;;;;;;;;;;;;-144.99;100.00;52792.56;5089518;28;20028;-74
2022/01/05 02:34:33;;;;;;;;;;;;;;;-144.99;100.00;52735.50;5088530;28;19935;-74
2022/01/05 02:37:00;;;;;;;;;;;;;;;-144.99;100.00;52751.81;5089479;28;19966;-76
2022/01/05 02:39:28;;;;;;;;;;;;;;;-144.99;100.00;52753.84;5089130;28;20165;-76
2022/01/05 02:41:54;;;;;;;;;;;;;;;-144.99;100.00;52755.88;5090944;28;20307;-73
2022/01/05 02:44:21;;;;;;;;;;;;;;;-144.99;100.00;52753.84;5089862;28;19970;-76
2022/01/05 02:46:47;;;;;;;;;;;;;;;-144.99;100.00;52737.53;5104636;28;19912;-77
2022/01/05 02:49:14;;;;;;;;;;;;;;;-144.99;100.00;52810.94;5110169;28;19924;-76
2022/01/05 02:51:40;;;;;;;;;;;;;;;-144.99;100.00;52768.13;5108290;28;19939;-76
2022/01/05 02:54:07;;;;;;;;;;;;;;;-144.99;100.00;52780.34;5106205;28;19977;-76
2022/01/05 02:56:34;;;;;;;;;;;;;;;-144.99;100.00;52731.44;5100953;28;19935;-76
2022/01/05 02:59:03;;;;;;;;;;;;;;;-144.99;100.00;52792.56;5090619;28;19982;-76
2022/01/05 03:01:29;;;;;;;;;;;;;;;-144.99;100.00;52725.31;5088803;28;20018;-76
2022/01/05 03:03:56;;;;;;;;;;;;;;;-144.99;100.00;52741.63;5088082;28;20377;-76
2022/01/05 03:06:22;;;;;;;;;;;;;;;-144.99;100.00;52717.16;5089093;28;20015;-74
2022/01/05 03:08:49;;;;;;;;;;;;;;;-144.99;100.00;52741.63;5087387;28;19974;-75
2022/01/05 03:11:15;;;;;;;;;;;;;;;-144.99;100.00;52766.09;5083269;28;19975;-75
2022/01/05 03:13:43;;;;;;;;;;;;;;;-144.99;100.00;52766.09;5088279;28;20011;-74
2022/01/05 03:16:10;;;;;;;;;;;;;;;-144.99;100.00;52798.69;5089355;28;19991;-73
2022/01/05 03:18:36;;;;;;;;;;;;;;;-144.99;100.00;52733.47;5089128;28;19928;-72
2022/01/05 03:21:03;;;;;;;;;;;;;;;-144.99;100.00;52766.09;5088477;28;19928;-73
2022/01/05 03:23:29;;;;;;;;;;;;;;;-144.99;100.00;52802.78;5085740;28;19977;-71
2022/01/05 03:25:56;;;;;;;;;;;;;;;-144.99;100.00;52762.00;5085723;28;19967;-72
2022/01/05 03:28:22;;;;;;;;;;;;;;;-144.99;100.00;52733.47;5089101;28;19955;-75
2022/01/05 03:30:50;;;;;;;;;;;;;;;-144.99;100.00;52768.13;5088704;28;19981;-73
2022/01/05 03:33:20;;;;;;;;;;;;;;;-144.99;100.00;52751.81;5088601;28;19924;-72
2022/01/05 03:35:48;;;;;;;;;;;;;;;-144.99;100.00;52729.38;5088560;28;19924;-73
2022/01/05 03:38:15;;;;;;;;;;;;;;;-144.99;100.00;52747.72;5088135;28;19924;-74
2022/01/05 03:40:42;;;;;;;;;;;;;;;-144.99;100.00;52762.00;5086837;28;19964;-74
2022/01/05 03:43:09;;;;;;;;;;;;;;;-144.99;100.00;52778.31;5088164;28;20007;-74
2022/01/05 03:45:36;;;;;;;;;;;;;;;-144.99;100.00;52735.50;5089113;28;19994;-74
2022/01/05 03:48:05;;;;;;;;;;;;;;;-144.99;100.00;52735.50;5088385;28;19928;-72
2022/01/05 03:50:31;;;;;;;;;;;;;;;-144.99;100.00;52780.34;5097207;28;20401;-73
2022/01/05 03:52:58;;;;;;;;;;;;;;;-144.99;100.00;52721.22;5105884;28;20426;-74
2022/01/05 03:55:24;;;;;;;;;;;;;;;-144.99;100.00;52719.19;5097303;28;19924;-72
2022/01/05 03:57:51;;;;;;;;;;;;;;;-144.99;100.00;52733.47;5090542;28;19924;-72
2022/01/05 04:00:18;;;;;;;;;;;;;;;-144.99;100.00;52729.38;5088620;28;19971;-73
2022/01/05 04:02:44;;;;;;;;;;;;;;;-144.99;100.00;52753.84;5088281;28;19925;-73
2022/01/05 04:05:12;;;;;;;;;;;;;;;-144.99;100.00;52725.31;5088082;28;19935;-73
2022/01/05 04:07:38;;;;;;;;;;;;;;;-144.99;100.00;52778.31;5088490;28;20298;-73
2022/01/05 04:10:06;;;;;;;;;;;;;;;-144.99;100.00;52737.53;5086172;28;20305;-75
2022/01/05 04:12:32;;;;;;;;;;;;;;;-144.99;100.00;52729.38;5087745;28;20008;-74
2022/01/05 04:14:59;;;;;;;;;;;;;;;-144.99;100.00;52725.31;5087813;28;19924;-74
2022/01/05 04:17:25;;;;;;;;;;;;;;;-144.99;100.00;52790.53;5088037;28;20139;-74
2022/01/05 04:19:52;;;;;;;;;;;;;;;-144.99;100.00;52749.78;5087454;28;20016;-77
2022/01/05 04:22:20;;;;;;;;;;;;;;;-144.99;100.00;52753.84;5087915;28;19931;-72
2022/01/05 04:24:46;;;;;;;;;;;;;;;-144.99;100.00;52770.16;5082004;28;20368;-72
2022/01/05 04:27:12;;;;;;;;;;;;;;;-144.99;100.00;52757.94;5088013;28;19952;-73
2022/01/05 04:29:39;;;;;;;;;;;;;;;-144.99;100.00;52766.09;5090662;28;20103;-73
2022/01/05 04:32:05;;;;;;;;;;;;;;;-144.99;100.00;52766.09;5090984;28;20515;-73
2022/01/05 04:34:32;;;;;;;;;;;;;;;-144.99;100.00;52731.44;5090392;28;19931;-73
2022/01/05 04:36:58;;;;;;;;;;;;;;;-144.99;100.00;52751.81;5091960;28;19924;-73
2022/01/05 04:39:26;;;;;;;;;;;;;;;-144.99;100.00;52759.97;5090263;28;19953;-73
2022/01/05 04:41:53;;;;;;;;;;;;;;;-144.99;100.00;52788.50;5091467;28;19928;-73
2022/01/05 04:44:19;;;;;;;;;;;;;;;-144.99;100.00;52786.47;5090848;28;20022;-72
2022/01/05 04:46:46;;;;;;;;;;;;;;;-144.99;100.00;52745.69;5109107;28;19987;-72
2022/01/05 04:49:12;;;;;;;;;;;;;;;-144.99;100.00;52766.09;5114181;28;19936;-72
2022/01/05 04:51:39;;;;;;;;;;;;;;;-144.99;99.79;52766.09;5113579;28;19998;-72
2022/01/05 04:54:05;;;;;;;;;;;;;;;-144.99;99.48;52749.78;5110629;28;19924;-73
2022/01/05 04:56:35;;;;;;;;;;;;;;;-144.99;99.35;52766.09;5112130;28;19924;-72
2022/01/05 04:59:02;;;;;;;;;;;;;;;-144.99;98.75;52745.69;5112197;28;19935;-74
2022/01/05 05:01:29;;;;;;;;;;;;;;;-144.99;98.65;52755.88;5110726;28;19924;-73
2022/01/05 05:03:55;;;;;;;;;;;;;;;-144.99;98.80;52762.00;5109858;28;19959;-72
2022/01/05 05:06:22;;;;;;;;;;;;;;;-144.99;99.37;52729.38;5108606;28;20075;-72
2022/01/05 05:08:49;;;;;;;;;;;;;;;-144.99;99.60;52745.69;5094410;28;20187;-71
2022/01/05 05:11:15;;;;;;;;;;;;;;;-144.99;99.86;52753.84;5088458;28;20526;-74
2022/01/05 05:13:43;;;;;;;;;;;;;;;-144.99;100.00;52766.09;5074071;28;19967;-72
2022/01/05 05:16:10;;;;;;;;;;;;;;;-144.99;100.00;52745.69;5092863;28;19978;-72
2022/01/05 05:18:36;;;;;;;;;;;;;;;-144.99;100.00;52770.16;5097450;28;19924;-71
2022/01/05 05:21:03;;;;;;;;;;;;;;;-144.99;100.00;52719.19;5097759;28;19924;-74
2022/01/05 05:23:29;;;;;;;;;;;;;;;-144.99;100.00;52741.63;5093479;28;20015;-72
2022/01/05 05:25:56;;;;;;;;;;;;;;;-144.99;100.00;52757.94;5091541;28;19924;-75
2022/01/05 05:28:22;;;;;;;;;;;;;;;-144.99;100.00;52749.78;5094486;28;19924;-72
2022/01/05 05:30:50;;;;;;;;;;;;;;;-144.99;100.00;52766.09;5092956;28;19928;-75
2022/01/05 05:33:17;;;;;;;;;;;;;;;-144.99;100.00;52741.63;5090307;28;20023;-74
2022/01/05 05:35:43;;;;;;;;;;;;;;;-144.99;100.00;52731.44;5090566;28;19967;-75
2022/01/05 05:38:11;;;;;;;;;;;;;;;-144.99;100.00;52739.56;5090421;28;19931;-74
2022/01/05 05:40:38;;;;;;;;;;;;;;;-144.99;100.00;52762.00;5088724;28;19970;-74
2022/01/05 05:43:04;;;;;;;;;;;;;;;-144.99;100.00;52719.19;5107362;28;19935;-73
2022/01/05 05:45:31;;;;;;;;;;;;;;;-144.99;100.00;52749.78;5111302;28;19935;-75
2022/01/05 05:47:59;;;;;;;;;;;;;;;-144.99;100.00;52770.16;5110474;28;19932;-75
2022/01/05 05:50:25;;;;;;;;;;;;;;;-144.99;100.00;52741.63;5091428;28;20169;-76
2022/01/05 05:52:52;;;;;;;;;;;;;;;-144.99;100.00;52753.84;5091668;28;19924;-75
2022/01/05 05:55:18;;;;;;;;;;;;;;;-144.99;100.00;52725.31;5089423;28;20044;-74
2022/01/05 05:57:45;;;;;;;;;;;;;;;-144.99;100.00;52766.09;5092001;28;19971;-74
2022/01/05 06:00:12;;;;;;;;;;;;;;;-144.99;100.00;52786.47;5105829;28;19954;-78
2022/01/05 06:02:38;;;;;;;;;;;;;;;-144.99;100.00;52757.94;5107397;28;19995;-77
2022/01/05 06:05:07;;;;;;;;;;;;;;;-144.99;100.00;52729.38;4399086;28;10000707;-79
2022/01/05 06:07:33;;;;;;;;;;;;;;;-144.99;100.00;52733.47;5092134;28;19997;-76
2022/01/05 06:10:00;;;;;;;;;;;;;;;-144.99;100.00;52766.09;5089158;28;19963;-77
2022/01/05 06:12:26;;;;;;;;;;;;;;;-144.99;100.00;52711.03;5083138;28;19931;-77
2022/01/05 06:14:53;;;;;;;;;;;;;;;-144.99;100.00;52753.84;5088382;28;19946;-78
2022/01/05 06:17:19;;;;;;;;;;;;;;;-144.99;100.00;52745.69;5088596;28;19928;-77
2022/01/05 06:19:45;;;;;;;;;;;;;;;-144.99;100.00;52745.69;5088445;28;19924;-75
2022/01/05 06:22:13;;;;;;;;;;;;;;;-144.99;100.00;52782.38;5089347;28;19928;-76
2022/01/05 06:24:40;;;;;;;;;;;;;;;-144.99;100.00;52766.09;5084805;28;19934;-75
2022/01/05 06:27:08;;;;;;;;;;;;;;;-144.99;100.00;52753.84;5101864;28;19931;-76
2022/01/05 06:29:35;;;;;;;;;;;;;;;-144.99;100.00;52766.09;5103002;28;19912;-76
2022/01/05 06:32:01;;;;;;;;;;;;;;;-144.99;100.00;52762.00;5100901;28;20010;-76
2022/01/05 06:34:28;;;;;;;;;;;;;;;-144.99;100.00;52739.56;5091212;28;19935;-75
2022/01/05 06:36:54;;;;;;;;;;;;;;;-144.99;100.00;52725.31;5092101;28;20457;-76
2022/01/05 06:39:22;;;;;;;;;;;;;;;-144.99;100.00;52762.00;5088560;28;20358;-76
2022/01/05 06:41:49;;;;;;;;;;;;;;;-144.99;100.00;52725.31;5089299;28;19924;-77
2022/01/05 06:44:15;;;;;;;;;;;;;;;-144.99;100.00;52747.72;5088670;28;19938;-77
2022/01/05 06:46:41;;;;;;;;;;;;;;;-144.99;100.00;52729.38;5089117;28;19923;-76
2022/01/05 06:49:08;;;;;;;;;;;;;;;-144.99;100.00;52717.16;5089047;28;20014;-76
2022/01/05 06:51:34;;;;;;;;;;;;;;;-144.99;100.00;52753.84;5087848;28;20475;-76
2022/01/05 06:54:01;;;;;;;;;;;;;;;-144.99;100.00;52745.69;5085977;28;19928;-78
2022/01/05 06:56:28;;;;;;;;;;;;;;;-144.99;100.00;52747.72;5088976;28;20011;-75
2022/01/05 06:58:55;;;;;;;;;;;;;;;-144.99;100.00;52774.22;5089094;28;19931;-75
2022/01/05 07:01:21;;;;;;;;;;;;;;;-144.99;100.00;52764.03;5089048;28;19927;-76
2022/01/05 07:03:48;;;;;;;;;;;;;;;-144.99;100.00;52727.34;5090511;28;20355;-78
2022/01/05 07:06:14;;;;;;;;;;;;;;;-144.99;100.00;52725.31;5110574;28;19999;-80
2022/01/05 07:08:41;;;;;;;;;;;;;;;-144.99;100.00;52782.38;5093110;28;19955;-78
2022/01/05 07:11:07;;;;;;;;;;;;;;;-144.99;100.00;52747.72;5081064;28;19995;-82
2022/01/05 07:13:35;;;;;;;;;;;;;;;-144.99;100.00;52762.00;5088152;28;19928;-77
2022/01/05 07:16:02;;;;;;;;;;;;;;;-144.99;100.00;52749.78;5089534;28;19924;-76
2022/01/05 07:18:28;;;;;;;;;;;;;;;-144.99;100.00;52737.53;5088743;28;19939;-77
2022/01/05 07:20:55;;;;;;;;;;;;;;;-144.99;100.00;52778.31;5089202;28;19928;-78
2022/01/05 07:23:21;;;;;;;;;;;;;;;-144.99;100.00;52774.22;5088060;28;20369;-77
2022/01/05 07:25:48;;;;;;;;;;;;;;;-144.99;100.00;52747.72;5086439;28;19931;-78
2022/01/05 07:28:14;;;;;;;;;;;;;;;-144.99;100.00;52766.09;5087956;28;20042;-78
2022/01/05 07:30:42;;;;;;;;;;;;;;;-144.99;100.00;52757.94;5087382;28;19924;-78
2022/01/05 07:33:08;;;;;;;;;;;;;;;-144.99;100.00;52749.78;5087923;28;20019;-77
2022/01/05 07:35:35;;;;;;;;;;;;;;;-144.99;100.00;52745.69;5087757;28;19960;-77
2022/01/05 07:38:01;;;;;;;;;;;;;;;-144.99;100.00;52721.22;5087686;28;19934;-77
2022/01/05 07:40:27;;;;;;;;;;;;;;;-144.99;100.00;52749.78;5086195;28;20306;-79
2022/01/05 07:42:54;;;;;;;;;;;;;;;-144.99;100.00;52749.78;5088121;28;19938;-77
2022/01/05 07:45:20;;;;;;;;;;;;;;;-144.99;100.00;52747.72;5087085;28;20031;-77
2022/01/05 07:47:48;;;;;;;;;;;;;;;-144.99;100.00;52762.00;5087812;28;19962;-77
2022/01/05 07:50:15;;;;;;;;;;;;;;;-144.99;100.00;52725.31;5087826;28;19932;-77
2022/01/05 07:52:42;;;;;;;;;;;;;;;-144.99;100.00;52762.00;5087290;28;19935;-78
2022/01/05 07:55:08;;;;;;;;;;;;;;;-144.99;100.00;52762.00;5085159;28;19924;-77
2022/01/05 07:57:35;;;;;;;;;;;;;;;-144.99;100.00;52717.16;5087625;28;19928;-77
2022/01/05 08:00:04;;;;;;;;;;;;;;;-144.99;100.00;52741.63;5088420;28;19928;-76
2022/01/05 08:02:30;;;;;;;;;;;;;;;-144.99;100.00;52741.63;5089526;28;19973;-77
2022/01/05 08:04:58;;;;;;;;;;;;;;;-144.99;100.00;52780.34;5090523;28;20031;-77
2022/01/05 08:07:25;;;;;;;;;;;;;;;-144.99;100.00;52764.03;5078714;28;19934;-79
2022/01/05 08:09:51;;;;;;;;;;;;;;;-144.99;100.00;52731.44;5090517;28;20255;-76
2022/01/05 08:12:17;;;;;;;;;;;;;;;-144.99;100.00;52745.69;5085391;28;19927;-77
2022/01/05 08:14:44;;;;;;;;;;;;;;;-144.99;100.00;52741.63;5091469;28;20389;-78
2022/01/05 08:17:10;;;;;;;;;;;;;;;-144.99;100.00;52741.63;5092035;28;19928;-76
2022/01/05 08:19:37;;;;;;;;;;;;;;;-144.99;100.00;52745.69;5091159;28;19928;-77
2022/01/05 08:22:05;;;;;;;;;;;;;;;-144.99;100.00;52729.38;4758785;22;10001810;-79
2022/01/05 08:24:31;;;;;;;;;;;;;;;-144.99;100.00;52745.69;5074481;28;20025;-80
2022/01/05 08:26:58;;;;;;;;;;;;;;;-144.99;100.00;52737.53;5070906;28;19979;-81
2022/01/05 08:29:27;;;;;;;;;;;;;;;-144.99;100.00;52741.63;5082800;28;20656;-79
2022/01/05 08:31:53;;;;;;;;;;;;;;;-144.99;100.00;52755.88;5085886;28;19939;-80
2022/01/05 08:34:20;;;;;;;;;;;;;;;-144.99;100.00;52749.78;5082661;28;19927;-80
2022/01/05 08:36:46;;;;;;;;;;;;;;;-144.99;100.00;52755.88;5073676;28;19924;-81
2022/01/05 08:39:14;;;;;;;;;;;;;;;-144.99;100.00;52757.94;5077618;28;20282;-80
2022/01/05 08:41:40;;;;;;;;;;;;;;;-144.99;100.00;52755.88;5079122;28;19972;-79
2022/01/05 08:44:07;;;;;;;;;;;;;;;-144.99;100.00;52762.00;5090048;28;19928;-82
2022/01/05 08:46:33;;;;;;;;;;;;;;;-144.99;100.00;52764.03;5069621;28;19929;-80
2022/01/05 08:49:00;;;;;;;;;;;;;;;-144.99;100.00;52731.44;5071431;28;19934;-80
2022/01/05 08:51:26;;;;;;;;;;;;;;;-144.99;100.00;52729.38;5083132;28;19928;-79
2022/01/05 08:53:52;;;;;;;;;;;;;;;-144.99;100.00;52757.94;5068668;28;19947;-78
2022/01/05 08:56:23;;;;;;;;;;;;;;;-144.99;100.00;52725.31;5073903;28;20000;-80
2022/01/05 08:58:50;;;;;;;;;;;;;;;-144.99;100.00;52733.47;5072426;28;20023;-79
2022/01/05 09:01:16;;;;;;;;;;;;;;;-144.99;100.00;52745.69;5071382;28;19929;-78
2022/01/05 09:03:43;;;;;;;;;;;;;;;-144.99;100.00;52782.38;5072561;28;19932;-78
2022/01/05 09:06:09;;;;;;;;;;;;;;;-144.99;100.00;52768.13;5071805;28;19939;-78
2022/01/05 09:08:37;;;;;;;;;;;;;;;-144.99;100.00;52721.22;5091511;28;19924;-78
2022/01/05 09:11:03;;;;;;;;;;;;;;;-144.99;100.00;52741.63;5065954;28;19932;-77
2022/01/05 09:13:31;;;;;;;;;;;;;;;-144.99;100.00;52745.69;5078264;28;20398;-77
2022/01/05 09:15:57;;;;;;;;;;;;;;;-144.99;100.00;52725.31;5077044;28;19971;-79
2022/01/05 09:18:24;;;;;;;;;;;;;;;-144.99;100.00;52786.47;5090190;28;19950;-77
2022/01/05 09:20:50;;;;;;;;;;;;;;;-144.99;100.00;52745.69;5082695;28;20401;-78
2022/01/05 09:23:17;;;;;;;;;;;;;;;-144.99;100.00;52725.31;5071670;28;20031;-78
2022/01/05 09:25:43;;;;;;;;;;;;;;;-144.99;100.00;52706.97;5082164;28;20293;-78
2022/01/05 09:28:09;;;;;;;;;;;;;;;-144.99;100.00;52696.78;5071859;28;19939;-78
2022/01/05 09:30:37;;;;;;;;;;;;;;;-144.99;100.00;52713.09;5087423;28;19927;-78
2022/01/05 09:33:04;;;;;;;;;;;;;;;-144.99;100.00;52745.69;5067379;28;20232;-78
2022/01/05 09:35:33;;;;;;;;;;;;;;;-144.99;100.00;52757.94;5067551;28;19929;-77
2022/01/05 09:38:10;;;;;;;;;;;;;;;-144.99;100.00;52749.78;5067751;28;19939;-76
2022/01/05 09:43:22;;;;;;;;;;;;;;;-144.99;100.00;52757.94;5067292;28;19947;-79
2022/01/05 09:46:05;;;;;;;;;;;;;;;-144.99;100.00;52757.94;5071431;28;19931;-79
2022/01/05 09:48:44;;;;;;;;;;;;;;;-144.99;100.00;52729.38;5068219;28;19935;-80
2022/01/05 09:51:12;;;;;;;;;;;;;;;-144.99;100.00;52735.50;5081260;28;19978;-79
2022/01/05 09:53:38;;;;;;;;;;;;;;;-144.99;100.00;52737.53;5091116;28;19912;-83
2022/01/05 09:56:06;;;;;;;;;;;;;;;-144.99;100.00;52725.31;5092320;28;19944;-77
2022/01/05 09:58:32;;;;;;;;;;;;;;;-144.99;100.00;52737.53;5065400;28;19936;-74
2022/01/05 10:01:00;;;;;;;;;;;;;;;-144.99;100.00;52733.47;5069881;28;19924;-77
2022/01/05 10:03:27;;;;;;;;;;;;;;;-144.99;100.00;52749.78;5067971;28;20024;-75
2022/01/05 10:05:53;;;;;;;;;;;;;;;-144.99;100.00;52757.94;5070027;28;20322;-77
2022/01/05 10:08:20;;;;;;;;;;;;;;;-144.99;100.00;52721.22;5069348;28;20049;-77
2022/01/05 10:10:46;;;;;;;;;;;;;;;-144.99;100.00;52741.63;5067669;28;19936;-76
2022/01/05 10:13:13;;;;;;;;;;;;;;;-144.99;100.00;52753.84;5068429;28;19936;-76
2022/01/05 10:15:39;;;;;;;;;;;;;;;-144.99;100.00;52709.00;5069928;28;19948;-77
2022/01/05 10:18:11;;;;;;;;;;;;;;;-144.99;100.00;52766.09;5069873;28;20035;-79
2022/01/05 10:20:38;;;;;;;;;;;;;;;-144.99;100.00;52725.31;5069747;28;19929;-79
2022/01/05 10:23:04;;;;;;;;;;;;;;;-144.99;100.00;52721.22;5071411;28;19954;-77
2022/01/05 10:25:31;;;;;;;;;;;;;;;-144.99;100.00;52729.38;5073873;28;20014;-77
2022/01/05 10:27:58;;;;;;;;;;;;;;;-144.99;100.00;52733.47;5078306;28;19929;-80
2022/01/05 10:30:35;;;;;;;;;;;;;;;-144.99;100.00;52745.69;5076914;28;19928;-82
2022/01/05 10:33:01;;;;;;;;;;;;;;;-144.99;100.00;52713.09;5080343;28;19970;-79
2022/01/05 10:35:29;;;;;;;;;;;;;;;-144.99;100.00;52762.00;5081326;28;20055;-81
2022/01/05 10:37:57;;;;;;;;;;;;;;;-144.99;100.00;52713.09;5072827;28;19928;-79
2022/01/05 10:40:23;;;;;;;;;;;;;;;-144.99;100.00;52717.16;5069797;28;19931;-75
2022/01/05 10:42:51;;;;;;;;;;;;;;;-144.99;100.00;52759.97;5081745;28;20011;-79
2022/01/05 10:45:19;;;;;;;;;;;;;;;-144.99;100.00;52721.22;5058740;28;19989;-77
2022/01/05 10:48:00;;;;;;;;;;;;;;;-144.99;100.00;52725.31;5076611;28;19930;-75
2022/01/05 10:50:27;;;;;;;;;;;;;;;-144.99;100.00;52717.16;5095179;28;20086;-79
2022/01/05 10:52:55;;;;;;;;;;;;;;;-144.99;100.00;52757.94;5101098;28;19935;-78
2022/01/05 10:55:24;;;;;;;;;;;;;;;-144.99;100.00;52706.97;5088314;28;19944;-80
2022/01/05 10:57:59;;;;;;;;;;;;;;;-144.99;100.00;52753.84;5081680;28;20251;-78
2022/01/05 11:00:46;;;;;;;;;;;;;;;-144.99;100.00;52721.22;5069846;28;19928;-77
2022/01/05 11:03:23;;;;;;;;;;;;;;;-144.99;100.00;52709.00;5057384;28;20412;-80
2022/01/05 11:06:03;;;;;;;;;;;;;;;-144.99;100.00;52709.00;5062307;28;19932;-79
2022/01/05 11:08:32;;;;;;;;;;;;;;;-144.99;100.00;52729.38;5081280;28;19939;-82
2022/01/05 11:10:58;;;;;;;;;;;;;;;-144.99;100.00;52745.69;5081264;28;19929;-82
2022/01/05 11:13:26;;;;;;;;;;;;;;;-144.99;100.00;52757.94;5083919;28;19928;-83
2022/01/05 11:15:56;;;;;;;;;;;;;;;-144.99;100.00;52713.09;5093805;28;20034;-80
2022/01/05 11:18:23;;;;;;;;;;;;;;;-144.99;100.00;52729.38;5092785;28;19947;-82
2022/01/05 11:20:52;;;;;;;;;;;;;;;-144.99;100.00;52745.69;5075763;28;19992;-78
2022/01/05 11:23:19;;;;;;;;;;;;;;;-144.99;100.00;52731.44;5074617;28;19997;-79
2022/01/05 11:25:47;;;;;;;;;;;;;;;-144.99;100.00;52762.00;5075721;28;20077;-80
2022/01/05 11:28:15;;;;;;;;;;;;;;;-144.99;100.00;52753.84;5077532;28;20000;-80
2022/01/05 11:30:42;;;;;;;;;;;;;;;-144.99;100.00;52709.00;5066286;28;20023;-80
2022/01/05 11:33:08;;;;;;;;;;;;;;;-144.99;100.00;52676.38;5067062;28;19932;-78
2022/01/05 11:35:35;;;;;;;;;;;;;;;-144.99;100.00;52745.69;5067256;28;20408;-78
2022/01/05 11:38:02;;;;;;;;;;;;;;;-144.99;100.00;52729.38;5072785;28;19924;-77
2022/01/05 11:40:29;;;;;;;;;;;;;;;-144.99;100.00;52723.28;5068011;28;20555;-81
2022/01/05 11:43:00;;;;;;;;;;;;;;;-144.99;100.00;52729.38;5079995;28;19928;-81
2022/01/05 11:45:28;;;;;;;;;;;;;;;-144.99;100.00;52731.44;5070915;28;19936;-78
2022/01/05 11:48:10;;;;;;;;;;;;;;;-144.99;100.00;52709.00;5069231;28;20331;-79
2022/01/05 11:50:42;;;;;;;;;;;;;;;-144.99;100.00;52737.53;5088652;28;20023;-78
2022/01/05 11:53:09;;;;;;;;;;;;;;;-144.99;100.00;52729.38;5074435;28;20023;-80
2022/01/05 11:55:57;;;;;;;;;;;;;;;-144.99;100.00;52749.78;5061666;28;20349;-79
2022/01/05 11:58:26;;;;;;;;;;;;;;;-144.99;100.00;52713.09;5066972;28;20472;-78
2022/01/05 12:01:07;;;;;;;;;;;;;;;-144.99;100.00;52757.94;5081467;28;19939;-82
2022/01/05 12:04:01;;;;;;;;;;;;;;;-144.99;100.00;52741.63;5086318;28;19928;-80
2022/01/05 12:06:29;;;;;;;;;;;;;;;-144.99;100.00;52709.00;5070252;28;19929;-79
2022/01/05 12:08:56;;;;;;;;;;;;;;;-144.99;100.00;52739.56;5060945;28;19985;-79
2022/01/05 12:11:30;;;;;;;;;;;;;;;-144.99;100.00;52733.47;5074407;28;19940;-80
2022/01/05 12:13:58;;;;;;;;;;;;;;;-144.99;100.00;52709.00;5088132;28;19928;-80
2022/01/05 12:16:25;;;;;;;;;;;;;;;-144.99;100.00;52719.19;5087815;28;19924;-79
2022/01/05 12:19:05;;;;;;;;;;;;;;;-144.99;100.00;52725.31;5088529;28;20394;-80
2022/01/05 12:21:42;;;;;;;;;;;;;;;-144.99;100.00;52743.66;5078498;28;19939;-78
2022/01/05 12:24:08;;;;;;;;;;;;;;;-144.99;100.00;52713.09;5073057;28;20008;-81